sensor_id;sensor_type;location;lat;lon;timestamp;temperature;humidity
73683;DHT22;72538;48.146;11.740;2023-12-22T00:00:26;5.20;99.90
73683;DHT22;72538;48.146;11.740;2023-12-22T00:02:52;5.00;99.90
73683;DHT22;72538;48.146;11.740;2023-12-22T00:05:18;4.70;99.90
73683;DHT22;72538;48.146;11.740;2023-12-22T00:07:44;4.60;99.90
73683;DHT22;72538;48.146;11.740;2023-12-22T00:10:09;4.40;99.90
73683;DHT22;72538;48.146;11.740;2023-12-22T00:12:35;4.10;99.90
73683;DHT22;72538;48.146;11.740;2023-12-22T00:15:01;3.70;99.90
73683;DHT22;72538;48.146;11.740;2023-12-22T00:17:26;3.40;99.90
73683;DHT22;72538;48.146;11.740;2023-12-22T00:19:52;2.90;99.90
73683;DHT22;72538;48.146;11.740;2023-12-22T00:22:18;2.60;99.90
73683;DHT22;72538;48.146;11.740;2023-12-22T00:24:43;2.30;99.90
73683;DHT22;72538;48.146;11.740;2023-12-22T00:27:09;2.10;99.90
73683;DHT22;72538;48.146;11.740;2023-12-22T00:29:35;1.90;99.90
73683;DHT22;72538;48.146;11.740;2023-12-22T00:32:03;1.80;99.90
73683;DHT22;72538;48.146;11.740;2023-12-22T00:34:30;1.70;99.90
73683;DHT22;72538;48.146;11.740;2023-12-22T00:36:55;1.70;99.90
73683;DHT22;72538;48.146;11.740;2023-12-22T00:39:21;1.70;99.90
73683;DHT22;72538;48.146;11.740;2023-12-22T00:41:48;1.60;99.90
73683;DHT22;72538;48.146;11.740;2023-12-22T00:44:13;1.60;99.90
73683;DHT22;72538;48.146;11.740;2023-12-22T00:46:39;1.60;99.90
73683;DHT22;72538;48.146;11.740;2023-12-22T00:49:05;1.60;99.90
73683;DHT22;72538;48.146;11.740;2023-12-22T00:51:30;1.60;99.90
73683;DHT22;72538;48.146;11.740;2023-12-22T00:53:56;1.70;99.90
73683;DHT22;72538;48.146;11.740;2023-12-22T00:56:22;1.70;99.90
73683;DHT22;72538;48.146;11.740;2023-12-22T00:58:48;1.70;99.90
73683;DHT22;72538;48.146;11.740;2023-12-22T01:01:13;1.70;99.90
73683;DHT22;72538;48.146;11.740;2023-12-22T01:03:39;1.70;99.90
73683;DHT22;72538;48.146;11.740;2023-12-22T01:06:05;1.80;99.90
73683;DHT22;72538;48.146;11.740;2023-12-22T01:08:31;1.80;99.90
73683;DHT22;72538;48.146;11.740;2023-12-22T01:10:56;1.80;99.90
73683;DHT22;72538;48.146;11.740;2023-12-22T01:13:22;1.80;99.90
73683;DHT22;72538;48.146;11.740;2023-12-22T01:15:48;1.90;99.90
73683;DHT22;72538;48.146;11.740;2023-12-22T01:18:13;1.90;99.90
73683;DHT22;72538;48.146;11.740;2023-12-22T01:20:39;1.90;99.90
73683;DHT22;72538;48.146;11.740;2023-12-22T01:23:05;1.90;99.90
73683;DHT22;72538;48.146;11.740;2023-12-22T01:25:31;1.90;99.90
73683;DHT22;72538;48.146;11.740;2023-12-22T01:27:57;1.90;99.90
73683;DHT22;72538;48.146;11.740;2023-12-22T01:30:22;1.90;99.90
73683;DHT22;72538;48.146;11.740;2023-12-22T01:32:48;1.90;99.90
73683;DHT22;72538;48.146;11.740;2023-12-22T01:35:14;1.90;99.90
73683;DHT22;72538;48.146;11.740;2023-12-22T01:37:40;1.90;99.90
73683;DHT22;72538;48.146;11.740;2023-12-22T01:40:07;2.00;99.90
73683;DHT22;72538;48.146;11.740;2023-12-22T01:42:33;2.00;99.90
73683;DHT22;72538;48.146;11.740;2023-12-22T01:44:59;2.00;99.90
73683;DHT22;72538;48.146;11.740;2023-12-22T01:47:25;1.90;99.90
73683;DHT22;72538;48.146;11.740;2023-12-22T01:49:51;1.90;99.90
73683;DHT22;72538;48.146;11.740;2023-12-22T01:52:17;1.90;99.90
73683;DHT22;72538;48.146;11.740;2023-12-22T01:54:44;1.90;99.90
73683;DHT22;72538;48.146;11.740;2023-12-22T01:57:12;1.90;99.90
73683;DHT22;72538;48.146;11.740;2023-12-22T01:59:39;1.90;99.90
73683;DHT22;72538;48.146;11.740;2023-12-22T02:02:05;1.80;99.90
73683;DHT22;72538;48.146;11.740;2023-12-22T02:04:31;1.80;99.90
73683;DHT22;72538;48.146;11.740;2023-12-22T02:06:59;1.80;99.90
73683;DHT22;72538;48.146;11.740;2023-12-22T02:09:26;1.80;99.90
73683;DHT22;72538;48.146;11.740;2023-12-22T02:11:52;1.80;99.90
73683;DHT22;72538;48.146;11.740;2023-12-22T02:14:18;1.80;99.90
73683;DHT22;72538;48.146;11.740;2023-12-22T02:19:48;1.70;99.90
73683;DHT22;72538;48.146;11.740;2023-12-22T02:22:14;1.70;99.90
73683;DHT22;72538;48.146;11.740;2023-12-22T02:24:41;1.60;99.90
73683;DHT22;72538;48.146;11.740;2023-12-22T02:29:46;1.50;99.90
73683;DHT22;72538;48.146;11.740;2023-12-22T02:32:16;1.50;99.90
73683;DHT22;72538;48.146;11.740;2023-12-22T02:34:41;1.30;99.90
73683;DHT22;72538;48.146;11.740;2023-12-22T02:37:09;1.30;99.90
73683;DHT22;72538;48.146;11.740;2023-12-22T02:39:36;1.30;99.90
73683;DHT22;72538;48.146;11.740;2023-12-22T02:42:03;1.30;99.90
73683;DHT22;72538;48.146;11.740;2023-12-22T02:44:31;1.20;99.90
73683;DHT22;72538;48.146;11.740;2023-12-22T02:46:57;1.20;99.90
73683;DHT22;72538;48.146;11.740;2023-12-22T02:49:23;1.20;99.90
73683;DHT22;72538;48.146;11.740;2023-12-22T02:51:49;1.30;99.90
73683;DHT22;72538;48.146;11.740;2023-12-22T02:54:14;1.30;99.90
73683;DHT22;72538;48.146;11.740;2023-12-22T02:56:40;1.30;99.90
73683;DHT22;72538;48.146;11.740;2023-12-22T02:59:09;1.30;99.90
73683;DHT22;72538;48.146;11.740;2023-12-22T03:01:35;1.30;99.90
73683;DHT22;72538;48.146;11.740;2023-12-22T03:04:00;1.40;99.90
73683;DHT22;72538;48.146;11.740;2023-12-22T03:06:26;1.40;99.90
73683;DHT22;72538;48.146;11.740;2023-12-22T03:08:52;1.40;99.90
73683;DHT22;72538;48.146;11.740;2023-12-22T03:11:17;1.50;99.90
73683;DHT22;72538;48.146;11.740;2023-12-22T03:13:43;1.50;99.90
73683;DHT22;72538;48.146;11.740;2023-12-22T03:16:09;1.60;99.90
73683;DHT22;72538;48.146;11.740;2023-12-22T03:18:38;1.60;99.90
73683;DHT22;72538;48.146;11.740;2023-12-22T03:21:04;1.60;99.90
73683;DHT22;72538;48.146;11.740;2023-12-22T03:23:30;1.70;99.90
73683;DHT22;72538;48.146;11.740;2023-12-22T03:25:56;1.70;99.90
73683;DHT22;72538;48.146;11.740;2023-12-22T03:28:22;1.70;99.90
73683;DHT22;72538;48.146;11.740;2023-12-22T03:30:48;1.70;99.90
73683;DHT22;72538;48.146;11.740;2023-12-22T03:33:13;1.70;99.90
73683;DHT22;72538;48.146;11.740;2023-12-22T03:35:39;1.70;99.90
73683;DHT22;72538;48.146;11.740;2023-12-22T03:38:05;1.80;99.90
73683;DHT22;72538;48.146;11.740;2023-12-22T03:40:30;1.80;99.90
73683;DHT22;72538;48.146;11.740;2023-12-22T03:42:56;1.80;99.90
73683;DHT22;72538;48.146;11.740;2023-12-22T03:45:22;1.80;99.90
73683;DHT22;72538;48.146;11.740;2023-12-22T03:47:47;1.90;99.90
73683;DHT22;72538;48.146;11.740;2023-12-22T03:50:13;1.90;99.90
73683;DHT22;72538;48.146;11.740;2023-12-22T03:52:39;1.90;99.90
73683;DHT22;72538;48.146;11.740;2023-12-22T03:55:05;1.90;99.90
73683;DHT22;72538;48.146;11.740;2023-12-22T03:57:31;1.90;99.90
73683;DHT22;72538;48.146;11.740;2023-12-22T03:59:57;1.90;99.90
73683;DHT22;72538;48.146;11.740;2023-12-22T04:02:23;1.90;99.90
73683;DHT22;72538;48.146;11.740;2023-12-22T04:04:48;1.90;99.90
73683;DHT22;72538;48.146;11.740;2023-12-22T04:07:14;2.00;99.90
73683;DHT22;72538;48.146;11.740;2023-12-22T04:09:40;2.00;99.90
73683;DHT22;72538;48.146;11.740;2023-12-22T04:12:06;2.10;99.90
73683;DHT22;72538;48.146;11.740;2023-12-22T04:14:31;2.00;99.90
73683;DHT22;72538;48.146;11.740;2023-12-22T04:16:57;2.00;99.90
73683;DHT22;72538;48.146;11.740;2023-12-22T04:19:23;2.10;99.90
73683;DHT22;72538;48.146;11.740;2023-12-22T04:21:49;2.00;99.90
73683;DHT22;72538;48.146;11.740;2023-12-22T04:24:14;2.00;99.90
73683;DHT22;72538;48.146;11.740;2023-12-22T04:26:40;2.10;99.90
73683;DHT22;72538;48.146;11.740;2023-12-22T04:29:06;2.20;99.90
73683;DHT22;72538;48.146;11.740;2023-12-22T04:31:31;2.30;99.90
73683;DHT22;72538;48.146;11.740;2023-12-22T04:33:57;2.40;99.90
73683;DHT22;72538;48.146;11.740;2023-12-22T04:36:23;2.50;99.90
73683;DHT22;72538;48.146;11.740;2023-12-22T04:38:48;2.70;99.90
73683;DHT22;72538;48.146;11.740;2023-12-22T04:41:14;2.80;99.90
73683;DHT22;72538;48.146;11.740;2023-12-22T04:43:40;3.00;99.90
73683;DHT22;72538;48.146;11.740;2023-12-22T04:46:06;3.00;99.90
73683;DHT22;72538;48.146;11.740;2023-12-22T04:48:31;3.20;99.90
73683;DHT22;72538;48.146;11.740;2023-12-22T04:50:58;3.20;99.90
73683;DHT22;72538;48.146;11.740;2023-12-22T04:53:24;3.30;99.90
73683;DHT22;72538;48.146;11.740;2023-12-22T04:55:50;3.50;99.90
73683;DHT22;72538;48.146;11.740;2023-12-22T04:58:16;3.70;99.90
73683;DHT22;72538;48.146;11.740;2023-12-22T05:00:41;3.80;99.90
73683;DHT22;72538;48.146;11.740;2023-12-22T05:03:07;3.90;99.90
73683;DHT22;72538;48.146;11.740;2023-12-22T05:05:33;4.00;99.90
73683;DHT22;72538;48.146;11.740;2023-12-22T05:07:59;4.10;99.90
73683;DHT22;72538;48.146;11.740;2023-12-22T05:10:24;4.10;99.90
73683;DHT22;72538;48.146;11.740;2023-12-22T05:12:50;4.20;99.90
73683;DHT22;72538;48.146;11.740;2023-12-22T05:15:16;4.20;99.90
73683;DHT22;72538;48.146;11.740;2023-12-22T05:17:41;4.30;99.90
73683;DHT22;72538;48.146;11.740;2023-12-22T05:20:08;4.30;99.90
73683;DHT22;72538;48.146;11.740;2023-12-22T05:22:36;4.40;99.90
73683;DHT22;72538;48.146;11.740;2023-12-22T05:25:02;4.40;99.90
73683;DHT22;72538;48.146;11.740;2023-12-22T05:27:28;4.50;99.90
73683;DHT22;72538;48.146;11.740;2023-12-22T05:29:54;4.60;99.90
73683;DHT22;72538;48.146;11.740;2023-12-22T05:32:20;4.60;99.90
73683;DHT22;72538;48.146;11.740;2023-12-22T05:34:45;4.60;99.90
73683;DHT22;72538;48.146;11.740;2023-12-22T05:37:11;4.80;99.90
73683;DHT22;72538;48.146;11.740;2023-12-22T05:39:37;4.80;99.90
73683;DHT22;72538;48.146;11.740;2023-12-22T05:42:03;4.80;99.90
73683;DHT22;72538;48.146;11.740;2023-12-22T05:44:29;4.70;99.90
73683;DHT22;72538;48.146;11.740;2023-12-22T05:46:56;4.80;99.90
73683;DHT22;72538;48.146;11.740;2023-12-22T05:49:22;4.90;99.90
73683;DHT22;72538;48.146;11.740;2023-12-22T05:51:49;4.90;99.90
73683;DHT22;72538;48.146;11.740;2023-12-22T05:54:15;4.90;99.90
73683;DHT22;72538;48.146;11.740;2023-12-22T05:56:42;4.90;99.90
73683;DHT22;72538;48.146;11.740;2023-12-22T05:59:08;4.90;99.90
73683;DHT22;72538;48.146;11.740;2023-12-22T06:01:33;4.80;99.90
73683;DHT22;72538;48.146;11.740;2023-12-22T06:03:59;4.80;99.90
73683;DHT22;72538;48.146;11.740;2023-12-22T06:06:25;4.60;99.90
73683;DHT22;72538;48.146;11.740;2023-12-22T06:08:53;4.60;99.90
73683;DHT22;72538;48.146;11.740;2023-12-22T06:11:19;4.30;99.90
73683;DHT22;72538;48.146;11.740;2023-12-22T06:13:44;4.00;99.90
73683;DHT22;72538;48.146;11.740;2023-12-22T06:16:14;3.80;99.90
73683;DHT22;72538;48.146;11.740;2023-12-22T06:18:41;3.70;99.90
73683;DHT22;72538;48.146;11.740;2023-12-22T06:21:08;3.60;99.90
73683;DHT22;72538;48.146;11.740;2023-12-22T06:23:34;3.60;99.90
73683;DHT22;72538;48.146;11.740;2023-12-22T06:26:02;3.60;99.90
73683;DHT22;72538;48.146;11.740;2023-12-22T06:28:29;3.60;99.90
73683;DHT22;72538;48.146;11.740;2023-12-22T06:30:55;3.60;99.90
73683;DHT22;72538;48.146;11.740;2023-12-22T06:33:21;3.70;99.90
73683;DHT22;72538;48.146;11.740;2023-12-22T06:35:47;3.70;99.90
73683;DHT22;72538;48.146;11.740;2023-12-22T06:38:13;3.70;99.90
73683;DHT22;72538;48.146;11.740;2023-12-22T06:40:39;3.70;99.90
73683;DHT22;72538;48.146;11.740;2023-12-22T06:43:04;3.70;99.90
73683;DHT22;72538;48.146;11.740;2023-12-22T06:45:30;3.70;99.90
73683;DHT22;72538;48.146;11.740;2023-12-22T06:47:56;3.70;99.90
73683;DHT22;72538;48.146;11.740;2023-12-22T06:50:22;3.70;99.90
73683;DHT22;72538;48.146;11.740;2023-12-22T06:52:47;3.60;99.90
73683;DHT22;72538;48.146;11.740;2023-12-22T06:55:14;3.70;99.90
73683;DHT22;72538;48.146;11.740;2023-12-22T06:57:40;3.70;99.90
73683;DHT22;72538;48.146;11.740;2023-12-22T07:00:07;3.70;99.90
73683;DHT22;72538;48.146;11.740;2023-12-22T07:02:33;3.80;99.90
73683;DHT22;72538;48.146;11.740;2023-12-22T07:07:37;3.80;99.90
73683;DHT22;72538;48.146;11.740;2023-12-22T07:10:04;4.00;99.90
73683;DHT22;72538;48.146;11.740;2023-12-22T07:12:30;4.00;99.90
73683;DHT22;72538;48.146;11.740;2023-12-22T07:14:55;4.00;99.90
73683;DHT22;72538;48.146;11.740;2023-12-22T07:17:21;4.20;99.90
73683;DHT22;72538;48.146;11.740;2023-12-22T07:19:47;4.20;99.90
73683;DHT22;72538;48.146;11.740;2023-12-22T07:22:12;4.30;99.90
73683;DHT22;72538;48.146;11.740;2023-12-22T07:24:40;4.40;99.90
73683;DHT22;72538;48.146;11.740;2023-12-22T07:27:06;4.50;99.90
73683;DHT22;72538;48.146;11.740;2023-12-22T07:29:31;4.50;99.90
73683;DHT22;72538;48.146;11.740;2023-12-22T07:31:57;4.30;99.90
73683;DHT22;72538;48.146;11.740;2023-12-22T07:34:23;4.10;99.90
73683;DHT22;72538;48.146;11.740;2023-12-22T07:36:48;4.00;99.90
73683;DHT22;72538;48.146;11.740;2023-12-22T07:39:14;3.90;99.90
73683;DHT22;72538;48.146;11.740;2023-12-22T07:41:41;3.90;99.90
73683;DHT22;72538;48.146;11.740;2023-12-22T07:44:06;3.90;99.90
73683;DHT22;72538;48.146;11.740;2023-12-22T07:46:32;3.60;99.90
73683;DHT22;72538;48.146;11.740;2023-12-22T07:48:58;3.50;99.90
73683;DHT22;72538;48.146;11.740;2023-12-22T07:51:24;3.30;99.90
73683;DHT22;72538;48.146;11.740;2023-12-22T07:53:50;3.20;99.90
73683;DHT22;72538;48.146;11.740;2023-12-22T07:56:16;3.20;99.90
73683;DHT22;72538;48.146;11.740;2023-12-22T07:58:41;3.10;99.90
73683;DHT22;72538;48.146;11.740;2023-12-22T08:01:07;3.00;99.90
73683;DHT22;72538;48.146;11.740;2023-12-22T08:03:33;3.10;99.90
73683;DHT22;72538;48.146;11.740;2023-12-22T08:05:59;3.10;99.90
73683;DHT22;72538;48.146;11.740;2023-12-22T08:08:24;3.00;99.90
73683;DHT22;72538;48.146;11.740;2023-12-22T08:10:50;2.70;99.90
73683;DHT22;72538;48.146;11.740;2023-12-22T08:13:16;2.50;99.90
73683;DHT22;72538;48.146;11.740;2023-12-22T08:15:43;2.40;99.90
73683;DHT22;72538;48.146;11.740;2023-12-22T08:18:09;2.30;99.90
73683;DHT22;72538;48.146;11.740;2023-12-22T08:20:35;2.20;99.90
73683;DHT22;72538;48.146;11.740;2023-12-22T08:23:01;2.20;99.90
73683;DHT22;72538;48.146;11.740;2023-12-22T08:25:27;2.20;99.90
73683;DHT22;72538;48.146;11.740;2023-12-22T08:27:52;2.20;99.90
73683;DHT22;72538;48.146;11.740;2023-12-22T08:30:18;2.40;99.90
73683;DHT22;72538;48.146;11.740;2023-12-22T08:32:44;2.40;99.90
73683;DHT22;72538;48.146;11.740;2023-12-22T08:35:10;2.50;99.90
73683;DHT22;72538;48.146;11.740;2023-12-22T08:37:36;2.60;99.90
73683;DHT22;72538;48.146;11.740;2023-12-22T08:40:03;2.60;99.90
73683;DHT22;72538;48.146;11.740;2023-12-22T08:42:30;2.70;99.90
73683;DHT22;72538;48.146;11.740;2023-12-22T08:44:56;2.90;99.90
73683;DHT22;72538;48.146;11.740;2023-12-22T08:47:22;3.00;99.90
73683;DHT22;72538;48.146;11.740;2023-12-22T08:49:47;3.20;99.90
73683;DHT22;72538;48.146;11.740;2023-12-22T08:52:13;3.40;99.90
73683;DHT22;72538;48.146;11.740;2023-12-22T08:54:39;3.50;99.90
73683;DHT22;72538;48.146;11.740;2023-12-22T08:57:05;3.50;99.90
73683;DHT22;72538;48.146;11.740;2023-12-22T08:59:31;3.60;99.90
73683;DHT22;72538;48.146;11.740;2023-12-22T09:01:56;3.70;99.90
73683;DHT22;72538;48.146;11.740;2023-12-22T09:04:22;3.80;99.90
73683;DHT22;72538;48.146;11.740;2023-12-22T09:06:49;4.10;99.90
73683;DHT22;72538;48.146;11.740;2023-12-22T09:09:15;4.40;99.90
73683;DHT22;72538;48.146;11.740;2023-12-22T09:11:40;4.70;99.90
73683;DHT22;72538;48.146;11.740;2023-12-22T09:14:06;5.90;99.90
73683;DHT22;72538;48.146;11.740;2023-12-22T09:16:35;6.30;99.90
73683;DHT22;72538;48.146;11.740;2023-12-22T09:19:02;6.90;99.90
73683;DHT22;72538;48.146;11.740;2023-12-22T09:21:28;8.20;99.90
73683;DHT22;72538;48.146;11.740;2023-12-22T09:23:54;9.10;99.90
73683;DHT22;72538;48.146;11.740;2023-12-22T09:26:20;9.10;99.90
73683;DHT22;72538;48.146;11.740;2023-12-22T09:28:46;9.90;99.90
73683;DHT22;72538;48.146;11.740;2023-12-22T09:31:12;9.80;99.90
73683;DHT22;72538;48.146;11.740;2023-12-22T09:33:40;10.20;99.90
73683;DHT22;72538;48.146;11.740;2023-12-22T09:36:07;8.80;99.90
73683;DHT22;72538;48.146;11.740;2023-12-22T09:38:33;7.90;99.90
73683;DHT22;72538;48.146;11.740;2023-12-22T09:41:00;7.30;99.90
73683;DHT22;72538;48.146;11.740;2023-12-22T09:43:26;6.80;99.90
73683;DHT22;72538;48.146;11.740;2023-12-22T09:45:52;6.50;99.90
73683;DHT22;72538;48.146;11.740;2023-12-22T09:48:20;6.40;99.90
73683;DHT22;72538;48.146;11.740;2023-12-22T09:50:49;6.30;99.90
73683;DHT22;72538;48.146;11.740;2023-12-22T09:53:17;6.20;99.90
73683;DHT22;72538;48.146;11.740;2023-12-22T09:55:45;6.10;99.90
73683;DHT22;72538;48.146;11.740;2023-12-22T09:58:13;6.00;99.90
73683;DHT22;72538;48.146;11.740;2023-12-22T10:00:42;6.00;99.90
73683;DHT22;72538;48.146;11.740;2023-12-22T10:03:09;6.00;99.90
73683;DHT22;72538;48.146;11.740;2023-12-22T10:05:36;5.90;99.90
73683;DHT22;72538;48.146;11.740;2023-12-22T10:08:03;5.80;99.90
73683;DHT22;72538;48.146;11.740;2023-12-22T10:10:30;5.70;99.90
73683;DHT22;72538;48.146;11.740;2023-12-22T10:12:56;5.70;99.90
73683;DHT22;72538;48.146;11.740;2023-12-22T10:15:24;5.60;99.90
73683;DHT22;72538;48.146;11.740;2023-12-22T10:17:51;5.40;99.90
73683;DHT22;72538;48.146;11.740;2023-12-22T10:20:19;5.30;99.90
73683;DHT22;72538;48.146;11.740;2023-12-22T10:22:45;5.10;99.90
73683;DHT22;72538;48.146;11.740;2023-12-22T10:25:14;5.00;99.90
73683;DHT22;72538;48.146;11.740;2023-12-22T10:27:42;4.80;99.90
73683;DHT22;72538;48.146;11.740;2023-12-22T10:30:09;4.70;99.90
73683;DHT22;72538;48.146;11.740;2023-12-22T10:32:41;4.50;99.90
73683;DHT22;72538;48.146;11.740;2023-12-22T10:35:08;4.40;99.90
73683;DHT22;72538;48.146;11.740;2023-12-22T10:37:34;4.30;99.90
73683;DHT22;72538;48.146;11.740;2023-12-22T10:40:06;4.20;99.90
73683;DHT22;72538;48.146;11.740;2023-12-22T10:42:34;4.20;99.90
73683;DHT22;72538;48.146;11.740;2023-12-22T10:45:01;4.10;99.90
73683;DHT22;72538;48.146;11.740;2023-12-22T10:47:28;4.10;99.90
73683;DHT22;72538;48.146;11.740;2023-12-22T10:49:54;4.10;99.90
73683;DHT22;72538;48.146;11.740;2023-12-22T10:52:20;4.10;99.90
73683;DHT22;72538;48.146;11.740;2023-12-22T10:54:48;4.00;99.90
73683;DHT22;72538;48.146;11.740;2023-12-22T10:57:17;4.00;99.90
73683;DHT22;72538;48.146;11.740;2023-12-22T10:59:45;4.00;99.90
73683;DHT22;72538;48.146;11.740;2023-12-22T11:02:18;4.00;99.90
73683;DHT22;72538;48.146;11.740;2023-12-22T11:04:47;4.00;99.90
73683;DHT22;72538;48.146;11.740;2023-12-22T11:07:16;4.00;99.90
73683;DHT22;72538;48.146;11.740;2023-12-22T11:09:45;4.00;99.90
73683;DHT22;72538;48.146;11.740;2023-12-22T11:12:13;4.00;99.90
73683;DHT22;72538;48.146;11.740;2023-12-22T11:14:39;4.10;99.90
73683;DHT22;72538;48.146;11.740;2023-12-22T11:17:07;4.10;99.90
73683;DHT22;72538;48.146;11.740;2023-12-22T11:19:33;4.20;99.90
73683;DHT22;72538;48.146;11.740;2023-12-22T11:22:01;4.20;99.90
73683;DHT22;72538;48.146;11.740;2023-12-22T11:24:29;4.30;99.90
73683;DHT22;72538;48.146;11.740;2023-12-22T11:26:58;4.40;99.90
73683;DHT22;72538;48.146;11.740;2023-12-22T11:29:27;4.50;99.90
73683;DHT22;72538;48.146;11.740;2023-12-22T11:31:54;4.70;99.90
73683;DHT22;72538;48.146;11.740;2023-12-22T11:34:23;4.70;99.90
73683;DHT22;72538;48.146;11.740;2023-12-22T11:36:51;4.90;99.90
73683;DHT22;72538;48.146;11.740;2023-12-22T11:39:18;5.00;99.90
73683;DHT22;72538;48.146;11.740;2023-12-22T11:41:44;5.10;99.90
73683;DHT22;72538;48.146;11.740;2023-12-22T11:44:12;5.10;99.90
73683;DHT22;72538;48.146;11.740;2023-12-22T11:46:38;5.20;99.90
73683;DHT22;72538;48.146;11.740;2023-12-22T11:49:04;5.20;99.90
73683;DHT22;72538;48.146;11.740;2023-12-22T11:51:33;5.20;99.90
73683;DHT22;72538;48.146;11.740;2023-12-22T11:54:02;5.30;99.90
73683;DHT22;72538;48.146;11.740;2023-12-22T11:56:29;5.30;99.90
73683;DHT22;72538;48.146;11.740;2023-12-22T11:58:55;5.30;99.90
73683;DHT22;72538;48.146;11.740;2023-12-22T12:01:24;5.30;99.90
73683;DHT22;72538;48.146;11.740;2023-12-22T12:03:56;5.30;99.90
73683;DHT22;72538;48.146;11.740;2023-12-22T12:08:59;5.20;99.90
73683;DHT22;72538;48.146;11.740;2023-12-22T12:14:32;5.20;99.90
73683;DHT22;72538;48.146;11.740;2023-12-22T12:17:06;5.20;99.90
73683;DHT22;72538;48.146;11.740;2023-12-22T12:19:35;5.20;99.90
73683;DHT22;72538;48.146;11.740;2023-12-22T12:22:03;5.20;99.90
73683;DHT22;72538;48.146;11.740;2023-12-22T12:24:29;5.20;99.90
73683;DHT22;72538;48.146;11.740;2023-12-22T12:26:55;5.20;99.90
73683;DHT22;72538;48.146;11.740;2023-12-22T12:29:21;5.20;99.90
73683;DHT22;72538;48.146;11.740;2023-12-22T12:31:47;5.30;99.90
73683;DHT22;72538;48.146;11.740;2023-12-22T12:34:13;5.30;99.90
73683;DHT22;72538;48.146;11.740;2023-12-22T12:36:40;5.40;99.90
73683;DHT22;72538;48.146;11.740;2023-12-22T12:39:08;5.40;99.90
73683;DHT22;72538;48.146;11.740;2023-12-22T12:41:37;5.40;99.90
73683;DHT22;72538;48.146;11.740;2023-12-22T12:44:04;5.40;99.90
73683;DHT22;72538;48.146;11.740;2023-12-22T12:46:33;5.40;99.90
73683;DHT22;72538;48.146;11.740;2023-12-22T12:49:07;5.40;99.90
73683;DHT22;72538;48.146;11.740;2023-12-22T12:51:40;5.40;99.90
73683;DHT22;72538;48.146;11.740;2023-12-22T12:54:05;5.30;99.90
73683;DHT22;72538;48.146;11.740;2023-12-22T12:56:44;5.30;99.90
73683;DHT22;72538;48.146;11.740;2023-12-22T12:59:11;5.30;99.90
73683;DHT22;72538;48.146;11.740;2023-12-22T13:01:39;5.40;99.90
73683;DHT22;72538;48.146;11.740;2023-12-22T13:04:06;5.40;99.90
73683;DHT22;72538;48.146;11.740;2023-12-22T13:06:32;5.40;99.90
73683;DHT22;72538;48.146;11.740;2023-12-22T13:08:59;5.40;99.90
73683;DHT22;72538;48.146;11.740;2023-12-22T13:11:27;5.50;99.90
73683;DHT22;72538;48.146;11.740;2023-12-22T13:13:54;5.50;99.90
73683;DHT22;72538;48.146;11.740;2023-12-22T13:16:20;5.50;99.90
73683;DHT22;72538;48.146;11.740;2023-12-22T13:18:48;5.50;99.90
73683;DHT22;72538;48.146;11.740;2023-12-22T13:21:14;5.50;99.90
73683;DHT22;72538;48.146;11.740;2023-12-22T13:23:41;5.50;99.90
73683;DHT22;72538;48.146;11.740;2023-12-22T13:26:18;5.50;99.90
73683;DHT22;72538;48.146;11.740;2023-12-22T13:28:45;5.50;99.90
73683;DHT22;72538;48.146;11.740;2023-12-22T13:31:12;5.40;99.90
73683;DHT22;72538;48.146;11.740;2023-12-22T13:33:40;5.40;99.90
73683;DHT22;72538;48.146;11.740;2023-12-22T13:36:06;5.30;99.90
73683;DHT22;72538;48.146;11.740;2023-12-22T13:38:32;5.30;99.90
73683;DHT22;72538;48.146;11.740;2023-12-22T13:41:03;5.30;99.90
73683;DHT22;72538;48.146;11.740;2023-12-22T13:43:29;5.20;99.90
73683;DHT22;72538;48.146;11.740;2023-12-22T13:45:56;5.20;99.90
73683;DHT22;72538;48.146;11.740;2023-12-22T13:48:22;5.20;99.90
73683;DHT22;72538;48.146;11.740;2023-12-22T13:50:59;5.20;99.90
73683;DHT22;72538;48.146;11.740;2023-12-22T13:53:25;5.20;99.90
73683;DHT22;72538;48.146;11.740;2023-12-22T13:55:59;5.10;99.90
73683;DHT22;72538;48.146;11.740;2023-12-22T13:58:26;5.10;99.90
73683;DHT22;72538;48.146;11.740;2023-12-22T14:00:53;5.10;99.90
73683;DHT22;72538;48.146;11.740;2023-12-22T14:03:19;5.20;99.90
73683;DHT22;72538;48.146;11.740;2023-12-22T14:05:49;5.20;99.90
73683;DHT22;72538;48.146;11.740;2023-12-22T14:08:15;5.20;99.90
73683;DHT22;72538;48.146;11.740;2023-12-22T14:10:48;5.20;99.90
73683;DHT22;72538;48.146;11.740;2023-12-22T14:13:15;5.20;99.90
73683;DHT22;72538;48.146;11.740;2023-12-22T14:15:43;5.20;99.90
73683;DHT22;72538;48.146;11.740;2023-12-22T14:18:10;5.20;99.90
73683;DHT22;72538;48.146;11.740;2023-12-22T14:20:37;5.20;99.90
73683;DHT22;72538;48.146;11.740;2023-12-22T14:23:03;5.30;99.90
73683;DHT22;72538;48.146;11.740;2023-12-22T14:25:29;5.30;99.90
73683;DHT22;72538;48.146;11.740;2023-12-22T14:27:57;5.30;99.90
73683;DHT22;72538;48.146;11.740;2023-12-22T14:30:24;5.30;99.90
73683;DHT22;72538;48.146;11.740;2023-12-22T14:32:50;5.30;99.90
73683;DHT22;72538;48.146;11.740;2023-12-22T14:35:16;5.30;99.90
73683;DHT22;72538;48.146;11.740;2023-12-22T14:37:41;5.40;99.90
73683;DHT22;72538;48.146;11.740;2023-12-22T14:40:09;5.40;99.90
73683;DHT22;72538;48.146;11.740;2023-12-22T14:42:35;5.40;99.90
73683;DHT22;72538;48.146;11.740;2023-12-22T14:45:01;5.50;99.90
73683;DHT22;72538;48.146;11.740;2023-12-22T14:47:28;5.60;99.90
73683;DHT22;72538;48.146;11.740;2023-12-22T14:49:53;5.60;99.90
73683;DHT22;72538;48.146;11.740;2023-12-22T14:52:19;5.60;99.90
73683;DHT22;72538;48.146;11.740;2023-12-22T14:54:45;5.70;99.90
73683;DHT22;72538;48.146;11.740;2023-12-22T14:57:11;5.70;99.90
73683;DHT22;72538;48.146;11.740;2023-12-22T14:59:37;5.70;99.90
73683;DHT22;72538;48.146;11.740;2023-12-22T15:02:03;5.70;99.90
73683;DHT22;72538;48.146;11.740;2023-12-22T15:04:31;5.70;99.90
73683;DHT22;72538;48.146;11.740;2023-12-22T15:06:59;5.70;99.90
73683;DHT22;72538;48.146;11.740;2023-12-22T15:09:24;5.70;99.90
73683;DHT22;72538;48.146;11.740;2023-12-22T15:11:50;5.70;99.90
73683;DHT22;72538;48.146;11.740;2023-12-22T15:14:16;5.70;99.90
73683;DHT22;72538;48.146;11.740;2023-12-22T15:16:42;5.80;99.90
73683;DHT22;72538;48.146;11.740;2023-12-22T15:19:14;5.80;99.90
73683;DHT22;72538;48.146;11.740;2023-12-22T15:21:40;5.80;99.90
73683;DHT22;72538;48.146;11.740;2023-12-22T15:24:07;5.80;99.90
73683;DHT22;72538;48.146;11.740;2023-12-22T15:26:33;5.80;99.90
73683;DHT22;72538;48.146;11.740;2023-12-22T15:28:59;5.80;99.90
73683;DHT22;72538;48.146;11.740;2023-12-22T15:31:26;5.80;99.90
73683;DHT22;72538;48.146;11.740;2023-12-22T15:33:54;5.80;99.90
73683;DHT22;72538;48.146;11.740;2023-12-22T15:36:20;5.80;99.90
73683;DHT22;72538;48.146;11.740;2023-12-22T15:38:47;5.80;99.90